EDT,Max TemperatureF,Mean TemperatureF,Min TemperatureF,Max Dew PointF,MeanDew PointF,Min DewpointF,Max Humidity, Mean Humidity, Min Humidity, Max Sea Level PressureIn, Mean Sea Level PressureIn, Min Sea Level PressureIn, Max VisibilityMiles, Mean VisibilityMiles, Min VisibilityMiles, Max Wind SpeedMPH, Mean Wind SpeedMPH, Max Gust SpeedMPH,PrecipitationIn, CloudCover, Events, WindDirDegrees
2013-4-1,33,28,24,27,15,10,80,56,38,30.08,29.96,29.74,10,10,7,21,12,29,0.00,5,Snow,292
2013-4-2,40,30,21,19,14,8,89,56,27,30.24,30.14,30.08,10,10,10,20,7,28,0.00,3,,272
2013-4-3,41,30,18,20,15,9,93,55,28,30.43,30.34,30.24,10,10,10,15,4,20,0.00,0,,301
2013-4-4,54,40,25,27,20,16,86,50,22,30.32,30.10,29.93,10,10,10,16,6,21,0.00,1,,215
2013-4-5,46,38,29,31,19,10,84,51,24,30.20,30.11,29.95,10,10,10,15,8,24,0.00,0,,351
2013-4-6,54,42,29,34,25,20,89,59,27,30.21,30.03,29.69,10,10,10,17,8,28,0.00,6,Rain-Snow,125
2013-4-7,54,42,30,48,36,29,94,74,50,30.04,29.80,29.53,10,10,4,20,11,31,0.00,7,Rain,271
2013-4-8,49,38,28,48,37,27,98,94,78,30.03,29.88,29.66,10,7,1,17,5,23,0.00,4,Rain,79
2013-4-9,43,40,37,42,40,36,99,97,93,30.08,30.01,29.90,10,7,0,16,7,25,0.00,8,Rain,52
2013-4-10,39,38,36,38,36,32,98,93,84,30.05,30.00,29.88,10,8,2,22,13,30,0.00,8,Rain,45
2013-4-11,36,34,33,34,33,32,98,94,83,30.02,29.89,29.72,10,6,1,23,16,31,0.00,8,Rain-Snow,57
2013-4-12,41,36,32,37,34,32,99,93,72,29.73,29.63,29.56,10,7,1,16,11,23,0.00,8,Rain-Snow,228
2013-4-13,39,36,34,35,31,24,98,81,59,29.96,29.82,29.73,10,9,2,22,10,29,0.00,8,Rain-Snow,245
2013-4-14,46,38,29,36,32,28,96,79,64,30.10,30.00,29.90,10,10,10,15,5,33,0.00,4,,127
2013-4-15,63,49,35,56,45,33,96,82,67,29.91,29.86,29.82,10,9,4,16,7,21,0.00,4,Rain,165
2013-4-16,55,48,42,47,37,31,97,69,41,30.27,30.07,29.90,10,10,5,16,8,22,0.00,3,Rain,291
2013-4-17,48,42,35,40,37,30,97,82,60,30.36,30.26,30.03,10,9,2,21,9,28,0.00,4,Rain,54
2013-4-18,62,52,41,60,50,40,99,93,83,30.01,29.67,29.42,10,7,1,16,9,31,0.00,7,Rain,117
2013-4-19,60,47,34,57,36,27,94,82,65,29.71,29.49,29.38,10,9,1,28,17,34,0.00,8,Rain-Snow,236
2013-4-20,36,32,28,29,20,16,86,59,47,30.44,30.16,29.71,10,10,7,18,13,26,0.00,6,Snow,292
2013-4-21,49,37,25,32,25,18,91,63,39,30.61,30.51,30.42,10,10,10,15,4,22,0.00,0,,119
2013-4-22,61,46,32,36,31,28,89,57,30,30.43,30.30,30.16,10,10,10,12,5,24,0.00,0,,141
2013-4-23,59,50,40,52,42,32,97,75,58,30.16,29.97,29.82,10,9,2,14,6,21,0.00,5,Rain,166
2013-4-24,35,34,34,33,33,33,96,95,93,29.87,29.86,29.86,10,8,5,15,12,17,0.00,8,Rain-Snow,340
2013-4-25,,,,,,,,,,,,,,,,,,,,,,
2013-4-26,60,54,49,38,34,29,60,45,37,30.41,30.32,30.27,10,10,10,15,11,22,0.00,1,,179
2013-4-27,68,55,42,47,39,34,84,55,28,30.31,30.23,30.10,10,10,10,12,7,18,0.00,0,,178
2013-4-28,62,55,48,53,46,39,97,74,54,30.10,29.95,29.86,10,9,2,14,3,28,0.00,7,,93
2013-4-29,70,59,48,54,52,48,99,75,45,29.93,29.88,29.85,10,8,0,9,3,,0.00,5,Fog,171
2013-4-30,73,64,55,59,55,52,92,77,60,30.01,29.94,29.89,10,9,4,20,9,30,0.00,3,Rain,159